Time;durP1;ratioP1;P1;durP2;ratioP2;P2;SDS_P1;SDS_P2;PMS_P1;PMS_P2;Temp;Humidity;BMP_temperature;BMP_pressure;BME280_temperature;BME280_humidity;BME280_pressure;Samples;Min_cycle;Max_cycle;Signal;HPM_P1;HPM_P2
2022/04/02 00:00:34;;;;;;;4.32;2.30;;;19.50;57.00;;;;;;4929409;28;93132;-81
2022/04/02 00:02:59;;;;;;;2.75;1.98;;;19.50;56.90;;;;;;4943603;28;95698;-80
2022/04/02 00:05:27;;;;;;;2.15;1.77;;;19.50;56.80;;;;;;4928398;28;93307;-81
2022/04/02 00:07:53;;;;;;;2.90;1.95;;;19.50;56.90;;;;;;4928375;28;92021;-82
2022/04/02 00:10:18;;;;;;;2.65;1.60;;;19.50;56.80;;;;;;4929343;28;93592;-81
2022/04/02 00:12:45;;;;;;;3.22;2.08;;;19.40;57.40;;;;;;4928950;28;92157;-80
2022/04/02 00:15:11;;;;;;;3.25;2.05;;;19.40;56.70;;;;;;4929644;28;93453;-81
2022/04/02 00:17:36;;;;;;;2.13;1.67;;;19.40;56.70;;;;;;4929919;28;91972;-81
2022/04/02 00:20:04;;;;;;;3.83;2.05;;;19.40;56.70;;;;;;4927707;28;93757;-81
2022/04/02 00:23:35;;;;;;;2.83;2.00;;;19.40;56.80;;;;;;4942333;28;92459;-81
2022/04/02 00:25:25;;;;;;;2.42;1.88;;;19.40;56.80;;;;;;4929330;28;92532;-80
2022/04/02 00:27:51;;;;;;;2.60;1.60;;;19.40;56.70;;;;;;4929417;28;92019;-81
2022/04/02 00:30:16;;;;;;;3.08;1.95;;;19.40;56.70;;;;;;4929667;28;92719;-81
2022/04/02 00:32:42;;;;;;;2.20;1.77;;;19.40;56.70;;;;;;4929000;28;92613;-81
2022/04/02 00:35:09;;;;;;;3.92;1.75;;;19.40;56.70;;;;;;4927912;28;92063;-82
2022/04/02 00:37:34;;;;;;;2.65;1.65;;;19.40;56.60;;;;;;4928626;28;91932;-81
2022/04/02 00:40:00;;;;;;;3.20;1.77;;;19.40;56.60;;;;;;4928862;28;92905;-80
2022/04/02 00:42:26;;;;;;;2.63;1.75;;;19.40;56.60;;;;;;4928046;28;94275;-81
2022/04/02 00:44:52;;;;;;;1.77;1.60;;;19.30;56.50;;;;;;4929003;28;93763;-80
2022/04/02 00:47:20;;;;;;;3.42;1.70;;;19.30;56.40;;;;;;4928401;28;92911;-81
2022/04/02 00:49:46;;;;;;;2.92;1.70;;;19.30;56.50;;;;;;4929291;28;93089;-80
2022/04/02 00:52:13;;;;;;;3.13;1.90;;;19.40;56.50;;;;;;4943835;28;95194;-81
2022/04/02 00:54:48;;;;;;;1.90;1.52;;;19.30;56.50;;;;;;4929265;28;93240;-81
2022/04/02 00:57:14;;;;;;;2.35;1.85;;;19.30;56.40;;;;;;4928654;28;91959;-80
2022/04/02 00:59:39;;;;;;;2.38;1.85;;;19.30;56.40;;;;;;4927715;28;93719;-81
2022/04/02 01:02:05;;;;;;;2.58;1.77;;;19.30;56.20;;;;;;4928354;28;92483;-81
2022/04/02 01:04:31;;;;;;;2.75;1.70;;;19.30;56.30;;;;;;4929099;28;92581;-82
2022/04/02 01:06:59;;;;;;;2.80;1.95;;;19.30;56.20;;;;;;4927866;28;92873;-81
2022/04/02 01:09:25;;;;;;;1.70;1.60;;;19.30;56.30;;;;;;4928064;28;94127;-81
2022/04/02 01:11:52;;;;;;;1.95;1.75;;;19.30;56.10;;;;;;4928313;28;93202;-82
2022/04/02 01:14:18;;;;;;;2.47;1.70;;;19.30;56.10;;;;;;4929039;28;92107;-82
2022/04/02 01:16:44;;;;;;;1.75;1.50;;;19.20;56.00;;;;;;4927488;28;92768;-82
2022/04/02 01:19:10;;;;;;;2.60;1.70;;;19.20;55.90;;;;;;4927938;28;93488;-81
2022/04/02 01:21:36;;;;;;;1.92;1.60;;;19.30;56.00;;;;;;4927362;28;92892;-82
2022/04/02 01:24:03;;;;;;;2.80;1.60;;;19.30;55.80;;;;;;4928053;28;92382;-82
2022/04/02 01:26:28;;;;;;;2.38;1.60;;;19.30;56.00;;;;;;4943241;28;91851;-82
2022/04/02 01:28:59;;;;;;;2.83;1.63;;;19.20;55.90;;;;;;4928161;28;93270;-82
2022/04/02 01:31:25;;;;;;;3.00;1.70;;;19.20;55.80;;;;;;4927675;28;92909;-82
2022/04/02 01:33:54;;;;;;;2.45;2.20;;;19.20;55.90;;;;;;4927441;28;93571;-81
2022/04/02 01:36:20;;;;;;;3.75;1.80;;;19.20;55.70;;;;;;4942419;28;92927;-82
2022/04/02 01:38:47;;;;;;;2.67;1.65;;;19.20;55.90;;;;;;4941789;28;95914;-81
2022/04/02 01:41:13;;;;;;;2.35;2.00;;;19.20;55.80;;;;;;4928362;28;93274;-82
2022/04/02 01:43:39;;;;;;;2.10;1.48;;;19.20;55.90;;;;;;4928564;28;93071;-82
2022/04/02 01:46:05;;;;;;;2.33;1.70;;;19.20;55.80;;;;;;4932660;28;92436;-81
2022/04/02 01:48:32;;;;;;;3.15;1.80;;;19.20;55.90;;;;;;4934400;28;93366;-80
2022/04/02 01:50:58;;;;;;;1.65;1.30;;;19.20;55.80;;;;;;4934924;28;92457;-82
2022/04/02 01:53:26;;;;;;;2.85;1.80;;;19.20;55.60;;;;;;4934988;28;92770;-81
2022/04/02 01:55:52;;;;;;;1.60;1.48;;;19.20;55.50;;;;;;4933566;28;92534;-81
2022/04/02 01:58:18;;;;;;;2.65;1.60;;;19.10;55.70;;;;;;4947844;28;96430;-81
2022/04/02 02:00:46;;;;;;;2.30;1.38;;;19.20;56.30;;;;;;4932731;28;94285;-81
2022/04/02 02:03:12;;;;;;;2.03;1.42;;;19.10;55.50;;;;;;4933380;28;92858;-81
2022/04/02 02:05:39;;;;;;;1.63;1.40;;;19.20;56.50;;;;;;4949778;28;92991;-82
2022/04/02 02:08:05;;;;;;;1.52;1.42;;;19.10;55.70;;;;;;4933857;28;94072;-81
2022/04/02 02:10:32;;;;;;;2.10;1.70;;;19.10;55.70;;;;;;4932208;28;92509;-81
2022/04/02 02:12:58;;;;;;;1.83;1.40;;;19.10;55.70;;;;;;4933625;28;92847;-81
2022/04/02 02:15:28;;;;;;;1.52;1.42;;;19.10;55.70;;;;;;4934991;28;91872;-81
2022/04/02 02:17:54;;;;;;;2.10;1.80;;;19.10;55.70;;;;;;4934043;28;93999;-82
2022/04/02 02:20:22;;;;;;;2.00;1.40;;;19.10;55.70;;;;;;4933649;28;92541;-82
2022/04/02 02:22:50;;;;;;;1.92;1.60;;;19.10;55.70;;;;;;4933239;28;93717;-82
2022/04/02 02:25:17;;;;;;;1.70;1.45;;;19.10;55.70;;;;;;4933117;28;92939;-81
2022/04/02 02:27:45;;;;;;;2.90;1.73;;;19.10;55.60;;;;;;4933406;28;93733;-81
2022/04/02 02:30:12;;;;;;;2.05;1.42;;;19.10;55.60;;;;;;4933085;28;93189;-82
2022/04/02 02:32:39;;;;;;;2.28;1.60;;;19.10;55.60;;;;;;4933829;28;92743;-81
2022/04/02 02:38:09;;;;;;;1.80;1.67;;;19.00;55.60;;;;;;4934118;28;92663;-81
2022/04/02 02:40:36;;;;;;;2.67;1.50;;;19.00;55.40;;;;;;4934317;28;92770;-81
2022/04/02 02:43:02;;;;;;;1.73;1.50;;;19.00;55.40;;;;;;4934425;28;92336;-82
2022/04/02 02:45:28;;;;;;;2.10;1.65;;;19.00;55.40;;;;;;4933370;28;92610;-82
2022/04/02 02:47:54;;;;;;;3.28;1.85;;;19.00;55.50;;;;;;4947903;28;94099;-81
2022/04/02 02:50:21;;;;;;;1.58;1.48;;;19.00;55.50;;;;;;4932333;28;96246;-81
2022/04/02 02:52:47;;;;;;;1.73;1.40;;;19.00;55.30;;;;;;4934247;28;92999;-82
2022/04/02 02:55:12;;;;;;;1.98;1.80;;;19.00;55.40;;;;;;4933517;28;92613;-81
2022/04/02 02:57:43;;;;;;;2.15;1.48;;;19.00;55.40;;;;;;4944274;28;94782;-81
2022/04/02 03:00:10;;;;;;;1.85;1.40;;;19.00;55.40;;;;;;4929435;28;92151;-82
2022/04/02 03:02:39;;;;;;;2.20;1.63;;;19.00;55.40;;;;;;4929776;28;92534;-81
2022/04/02 03:05:13;;;;;;;2.47;1.38;;;19.00;55.30;;;;;;4929621;28;92704;-81
2022/04/02 03:08:02;;;;;;;2.10;1.30;;;19.00;55.40;;;;;;4928641;28;92654;-82
2022/04/02 03:10:28;;;;;;;2.70;1.70;;;18.90;55.20;;;;;;4929308;28;92676;-81
2022/04/02 03:12:57;;;;;;;2.25;1.60;;;18.90;55.40;;;;;;4929917;28;93585;-81
2022/04/02 03:15:24;;;;;;;1.40;1.27;;;18.90;55.30;;;;;;4930547;28;92728;-82
2022/04/02 03:17:51;;;;;;;1.58;1.48;;;18.90;55.30;;;;;;4930442;28;93059;-81
2022/04/02 03:20:18;;;;;;;2.00;1.42;;;18.90;55.10;;;;;;4929887;28;92521;-81
2022/04/02 03:22:45;;;;;;;1.67;1.40;;;18.90;55.10;;;;;;4929782;28;92717;-82
2022/04/02 03:25:17;;;;;;;3.25;1.70;;;18.90;55.10;;;;;;4929143;28;92599;-82
2022/04/02 03:27:44;;;;;;;1.52;1.27;;;18.90;55.10;;;;;;4928992;28;93581;-81
2022/04/02 03:30:11;;;;;;;1.45;1.35;;;18.90;55.20;;;;;;4930190;28;92254;-81
2022/04/02 03:32:38;;;;;;;2.53;1.50;;;18.90;55.60;;;;;;4930423;28;91951;-78
2022/04/02 03:35:15;;;;;;;2.85;1.45;;;18.90;55.10;;;;;;4929868;28;91926;-82
2022/04/02 03:37:43;;;;;;;2.30;1.33;;;18.90;55.00;;;;;;4929671;28;93774;-80
2022/04/02 03:40:14;;;;;;;2.42;1.60;;;18.90;55.00;;;;;;4928300;28;93831;-81
2022/04/02 03:42:41;;;;;;;1.95;1.30;;;18.90;55.20;;;;;;4929096;28;92657;-82
2022/04/02 03:45:09;;;;;;;2.05;1.45;;;18.90;55.10;;;;;;4928702;28;93189;-81
2022/04/02 03:47:35;;;;;;;1.95;1.50;;;18.80;55.00;;;;;;4943043;28;96739;-81
2022/04/02 03:50:01;;;;;;;2.20;1.50;;;18.80;55.20;;;;;;4929056;28;92990;-81
2022/04/02 03:52:27;;;;;;;1.98;1.58;;;18.80;55.00;;;;;;4929316;28;93041;-82
2022/04/02 03:54:53;;;;;;;1.50;1.40;;;18.80;55.00;;;;;;4930063;28;91784;-82
2022/04/02 03:57:19;;;;;;;2.50;1.42;;;18.80;55.00;;;;;;4928111;28;94075;-81
2022/04/02 03:59:46;;;;;;;2.28;1.50;;;18.80;54.90;;;;;;4929343;28;92843;-81
2022/04/02 04:02:12;;;;;;;1.75;1.48;;;18.80;54.80;;;;;;4929803;28;93906;-82
2022/04/02 04:04:39;;;;;;;1.40;1.20;;;18.80;55.00;;;;;;4928833;28;92857;-81
2022/04/02 04:07:06;;;;;;;4.15;2.08;;;18.80;54.80;;;;;;4928850;28;92986;-81
2022/04/02 04:09:41;;;;;;;1.77;1.20;;;18.80;54.90;;;;;;4929543;28;92567;-81
2022/04/02 04:12:08;;;;;;;1.65;1.30;;;18.80;54.80;;;;;;4930000;28;92450;-82
2022/04/02 04:14:33;;;;;;;1.48;1.38;;;18.80;54.80;;;;;;4930298;28;92894;-81
2022/04/02 04:17:00;;;;;;;1.77;1.40;;;18.80;54.70;;;;;;4929195;28;93314;-82
2022/04/02 04:19:26;;;;;;;1.23;1.10;;;18.80;54.80;;;;;;4929643;28;92436;-82
2022/04/02 04:21:51;;;;;;;1.92;1.40;;;18.80;54.80;;;;;;4929072;28;92792;-82
2022/04/02 04:24:17;;;;;;;1.50;1.38;;;18.80;54.70;;;;;;4927994;28;92091;-81
2022/04/02 04:26:43;;;;;;;1.20;1.10;;;18.80;54.80;;;;;;4928223;28;93907;-81
2022/04/02 04:29:09;;;;;;;1.23;1.13;;;18.80;54.70;;;;;;4928753;28;94090;-82
2022/04/02 04:31:36;;;;;;;2.03;1.30;;;18.80;54.60;;;;;;4930557;28;92916;-82
2022/04/02 04:34:03;;;;;;;1.80;1.52;;;18.70;54.60;;;;;;4928672;28;92560;-81
2022/04/02 04:36:29;;;;;;;1.50;1.40;;;18.70;54.40;;;;;;4928423;28;92551;-82
2022/04/02 04:38:56;;;;;;;1.58;1.35;;;18.70;54.60;;;;;;4928284;28;93178;-82
2022/04/02 04:41:22;;;;;;;1.90;1.52;;;18.70;54.60;;;;;;4929329;28;92408;-82
2022/04/02 04:43:48;;;;;;;1.95;1.30;;;18.70;54.70;;;;;;4929767;28;91950;-82
2022/04/02 04:46:15;;;;;;;2.08;1.58;;;18.70;54.60;;;;;;4943209;28;95498;-82
2022/04/02 04:48:43;;;;;;;2.05;1.15;;;18.70;54.50;;;;;;4929170;28;92427;-81
2022/04/02 04:51:12;;;;;;;1.25;1.15;;;18.70;54.60;;;;;;4929691;28;93663;-82
2022/04/02 04:53:38;;;;;;;1.30;1.13;;;18.70;54.60;;;;;;4944219;28;92849;-82
2022/04/02 04:56:04;;;;;;;1.38;1.27;;;18.70;54.60;;;;;;4929062;28;92567;-80
2022/04/02 04:58:30;;;;;;;2.50;1.38;;;18.70;54.60;;;;;;4928895;28;92509;-81
2022/04/02 05:00:57;;;;;;;2.00;1.40;;;18.60;54.40;;;;;;4929089;28;92234;-82
2022/04/02 05:03:24;;;;;;;1.25;1.15;;;18.70;54.40;;;;;;4943161;28;92450;-80
2022/04/02 05:05:52;;;;;;;1.42;1.20;;;18.70;54.50;;;;;;4928333;28;92818;-81
2022/04/02 05:08:18;;;;;;;2.30;1.30;;;18.70;54.50;;;;;;4929060;28;92534;-80
2022/04/02 05:10:44;;;;;;;1.50;1.33;;;18.60;54.30;;;;;;4929031;28;92470;-81
2022/04/02 05:13:13;;;;;;;1.95;1.27;;;18.60;54.30;;;;;;4929179;28;92803;-82
2022/04/02 05:15:41;;;;;;;1.60;1.50;;;18.60;54.30;;;;;;4927962;28;93638;-81
2022/04/02 05:18:07;;;;;;;2.05;1.08;;;18.60;54.30;;;;;;4928827;28;93104;-81
2022/04/02 05:20:34;;;;;;;1.17;1.08;;;18.60;54.20;;;;;;4928485;28;92930;-81
2022/04/02 05:22:59;;;;;;;1.30;1.20;;;18.60;54.20;;;;;;4928805;28;91966;-82
2022/04/02 05:25:26;;;;;;;1.70;1.25;;;18.60;54.50;;;;;;4928866;28;92916;-81
2022/04/02 05:28:12;;;;;;;1.45;1.23;;;18.60;54.30;;;;;;4928324;28;92714;-81
2022/04/02 05:30:37;;;;;;;1.77;1.40;;;18.60;54.40;;;;;;4928506;28;92485;-81
2022/04/02 05:33:03;;;;;;;1.35;1.17;;;18.60;54.30;;;;;;4929191;28;91266;-81
2022/04/02 05:35:29;;;;;;;1.38;1.23;;;18.60;54.30;;;;;;4926958;28;93103;-81
2022/04/02 05:37:55;;;;;;;1.70;1.40;;;18.60;54.40;;;;;;4926693;28;93017;-82
2022/04/02 05:40:20;;;;;;;1.38;1.20;;;18.60;54.30;;;;;;4927085;28;93201;-81
2022/04/02 05:42:46;;;;;;;1.40;1.30;;;18.60;54.20;;;;;;4927717;28;92710;-81
2022/04/02 05:45:12;;;;;;;1.50;1.20;;;18.50;54.30;;;;;;4927688;28;92583;-82
2022/04/02 05:47:44;;;;;;;1.30;1.20;;;18.50;54.20;;;;;;4927426;28;92828;-82
2022/04/02 05:50:12;;;;;;;1.02;0.93;;;18.60;54.20;;;;;;4928109;28;92593;-82
2022/04/02 05:52:38;;;;;;;1.00;0.90;;;18.50;54.30;;;;;;4927993;28;92718;-82
2022/04/02 05:55:10;;;;;;;1.35;1.13;;;18.50;54.20;;;;;;4927034;28;92879;-83
2022/04/02 05:57:37;;;;;;;1.00;0.95;;;18.50;54.00;;;;;;4927826;28;92772;-83
2022/04/02 06:00:15;;;;;;;2.33;1.20;;;18.50;54.00;;;;;;4941546;28;92192;-83
2022/04/02 06:02:41;;;;;;;1.50;1.13;;;18.50;54.10;;;;;;4926978;28;92058;-83
2022/04/02 06:05:08;;;;;;;1.10;1.00;;;18.50;54.00;;;;;;4926164;28;93809;-82
2022/04/02 06:07:35;;;;;;;3.20;1.20;;;18.50;53.70;;;;;;4926444;28;93334;-83
2022/04/02 06:10:04;;;;;;;1.52;1.30;;;18.50;53.70;;;;;;4927377;28;92665;-84
2022/04/02 06:12:31;;;;;;;1.40;1.30;;;18.50;53.60;;;;;;4926959;28;92020;-83
2022/04/02 06:14:57;;;;;;;1.73;1.35;;;18.50;53.70;;;;;;4926945;28;93019;-82
2022/04/02 06:17:23;;;;;;;2.50;1.00;;;18.50;53.70;;;;;;4926856;28;92885;-82
2022/04/02 06:19:48;;;;;;;1.30;1.20;;;18.50;53.50;;;;;;4928276;28;92713;-81
2022/04/02 06:22:14;;;;;;;3.30;1.25;;;18.50;54.10;;;;;;4927947;28;91568;-80
2022/04/02 06:24:40;;;;;;;2.85;1.30;;;18.50;53.40;;;;;;4927451;28;92513;-81
2022/04/02 06:27:06;;;;;;;1.33;1.20;;;18.50;53.70;;;;;;4927123;28;93047;-81
2022/04/02 06:29:32;;;;;;;2.10;1.20;;;18.50;54.00;;;;;;4927363;28;93484;-83
2022/04/02 06:31:57;;;;;;;2.85;1.00;;;18.60;54.20;;;;;;4930124;28;92031;-82
2022/04/02 06:34:23;;;;;;;2.90;1.30;;;18.70;54.40;;;;;;4933976;28;92757;-81
2022/04/02 06:36:54;;;;;;;2.60;1.10;;;18.70;54.00;;;;;;4928942;28;92338;-82
2022/04/02 06:39:19;;;;;;;2.03;1.50;;;18.80;54.00;;;;;;4930723;28;92755;-82
2022/04/02 06:41:45;;;;;;;6.00;1.20;;;18.80;54.10;;;;;;4931245;28;92843;-81
2022/04/02 06:44:11;;;;;;;5.03;1.67;;;18.90;54.50;;;;;;4931069;28;92892;-81
2022/04/02 06:46:39;;;;;;;5.95;1.30;;;19.00;54.70;;;;;;4930346;28;92233;-81
2022/04/02 06:49:06;;;;;;;1.70;1.27;;;19.00;54.30;;;;;;4930952;28;93063;-81
2022/04/02 06:51:33;;;;;;;4.32;1.50;;;19.10;54.10;;;;;;4930729;28;92824;-81
2022/04/02 06:53:59;;;;;;;5.18;1.50;;;19.10;54.30;;;;;;4930098;28;93859;-81
2022/04/02 06:56:25;;;;;;;2.83;1.20;;;19.10;54.20;;;;;;4930405;28;93282;-81
2022/04/02 06:58:51;;;;;;;5.78;1.75;;;19.10;54.30;;;;;;4930889;28;92054;-81
2022/04/02 07:01:16;;;;;;;5.22;1.67;;;19.10;54.90;;;;;;4929625;28;93090;-82
2022/04/02 07:03:42;;;;;;;4.47;1.88;;;19.10;54.50;;;;;;4929357;28;93311;-81
2022/04/02 07:06:08;;;;;;;2.67;1.35;;;19.10;54.50;;;;;;4929488;28;93119;-81
2022/04/02 07:08:36;;;;;;;2.58;1.45;;;19.10;54.40;;;;;;4929000;28;92699;-81
2022/04/02 07:11:03;;;;;;;4.07;1.40;;;19.10;54.50;;;;;;4929662;28;91805;-81
2022/04/02 07:13:29;;;;;;;4.50;1.40;;;19.10;54.50;;;;;;4944217;28;95717;-82
2022/04/02 07:15:55;;;;;;;6.05;1.90;;;19.10;53.40;;;;;;4929430;28;92993;-83
2022/04/02 07:18:23;;;;;;;5.80;1.88;;;19.10;51.80;;;;;;4928465;28;93627;-81
2022/04/02 07:21:00;;;;;;;4.53;1.52;;;19.20;50.90;;;;;;4943827;28;92481;-81
2022/04/02 07:23:29;;;;;;;5.95;1.45;;;19.20;53.20;;;;;;4928726;28;93443;-82
2022/04/02 07:25:55;;;;;;;26.00;6.20;;;19.20;53.70;;;;;;4928324;28;94057;-81
2022/04/02 07:28:23;;;;;;;67.63;13.10;;;19.20;53.80;;;;;;4929186;28;92051;-82
2022/04/02 07:30:48;;;;;;;48.78;8.95;;;19.30;54.20;;;;;;4928096;28;92596;-81
2022/04/02 07:33:14;;;;;;;31.92;7.05;;;19.30;54.70;;;;;;4926406;28;92046;-81
2022/04/02 07:36:04;;;;;;;33.38;5.97;;;19.30;55.10;;;;;;4928901;28;92416;-80
2022/04/02 07:38:48;;;;;;;27.88;5.40;;;19.40;55.70;;;;;;4914763;28;92676;-81
2022/04/02 07:41:13;;;;;;;31.27;6.60;;;19.40;55.00;;;;;;4928435;28;92708;-81
2022/04/02 07:44:01;;;;;;;35.30;6.72;;;19.40;55.10;;;;;;4926250;28;93569;-82
2022/04/02 07:46:32;;;;;;;24.90;5.40;;;19.40;55.10;;;;;;4927175;28;93940;-82
2022/04/02 07:48:58;;;;;;;18.48;5.43;;;19.40;55.40;;;;;;4927516;28;92258;-82
2022/04/02 07:51:30;;;;;;;26.65;6.32;;;19.50;55.60;;;;;;4928391;28;92858;-84
2022/04/02 07:54:01;;;;;;;23.92;5.28;;;19.50;55.30;;;;;;4928708;28;92905;-80
2022/04/02 07:56:37;;;;;;;24.45;5.43;;;19.50;55.40;;;;;;4888608;28;105236;-81
2022/04/02 07:59:22;;;;;;;20.30;4.22;;;19.50;55.40;;;;;;4928362;28;93109;-81
2022/04/02 08:01:49;;;;;;;18.15;3.85;;;19.50;54.70;;;;;;4927505;28;91731;-81
2022/04/02 08:04:20;;;;;;;23.60;5.40;;;19.50;53.80;;;;;;4926844;28;92737;-80
2022/04/02 08:06:49;;;;;;;19.77;4.82;;;19.50;54.10;;;;;;4929305;28;92287;-81
2022/04/02 08:09:17;;;;;;;19.13;4.25;;;19.50;54.30;;;;;;4927775;28;93220;-81
2022/04/02 08:11:45;;;;;;;17.80;3.95;;;19.60;52.30;;;;;;4929086;28;92457;-82
2022/04/02 08:14:11;;;;;;;20.83;4.65;;;19.60;52.00;;;;;;4929220;28;92954;-82
2022/04/02 08:16:55;;;;;;;18.48;4.85;;;19.60;50.80;;;;;;4943861;28;94157;-82
2022/04/02 08:19:23;;;;;;;16.90;3.83;;;19.60;51.20;;;;;;4929160;28;92568;-82
2022/04/02 08:21:48;;;;;;;13.13;3.00;;;19.60;52.50;;;;;;4928839;28;92942;-82
2022/04/02 08:24:14;;;;;;;18.55;3.67;;;19.60;51.10;;;;;;4928034;28;93182;-83
2022/04/02 08:27:00;;;;;;;17.75;5.20;;;19.60;49.70;;;;;;4928011;28;92747;-82
2022/04/02 08:29:59;;;;;;;38.88;7.80;;;19.60;49.20;;;;;;4943205;28;92537;-82
2022/04/02 08:32:49;;;;;;;24.50;6.18;;;19.60;49.50;;;;;;4927488;28;92907;-82
2022/04/02 08:35:22;;;;;;;20.10;5.15;;;19.50;47.20;;;;;;4927248;28;93887;-82
2022/04/02 08:38:17;;;;;;;15.07;5.43;;;19.50;47.80;;;;;;4928094;28;94195;-81
2022/04/02 08:40:57;;;;;;;12.70;3.67;;;19.50;48.80;;;;;;4907657;28;93259;-82
2022/04/02 08:44:05;;;;;;;19.15;4.45;;;19.50;48.20;;;;;;4928815;28;92459;-82
2022/04/02 08:46:35;;;;;;;18.10;3.92;;;19.50;49.10;;;;;;4926089;28;92690;-83
2022/04/02 08:49:16;;;;;;;21.38;5.85;;;19.50;48.20;;;;;;4939797;28;95852;-82
2022/04/02 08:51:45;;;;;;;22.77;5.78;;;19.50;47.80;;;;;;4927023;28;92127;-82
2022/04/02 08:54:23;;;;;;;22.42;5.45;;;19.50;50.10;;;;;;4926359;28;91673;-81
2022/04/02 08:57:13;;;;;;;22.67;5.40;;;19.60;50.30;;;;;;4927947;28;92624;-81
2022/04/02 08:59:40;;;;;;;26.55;6.38;;;19.60;50.50;;;;;;4927842;28;93223;-81
2022/04/02 09:02:25;;;;;;;19.55;4.85;;;19.60;51.20;;;;;;4927623;28;92962;-81
2022/04/02 09:05:10;;;;;;;20.35;5.65;;;19.60;51.50;;;;;;4927883;28;92538;-81
2022/04/02 09:08:13;;;;;;;20.17;4.75;;;19.60;51.70;;;;;;4926692;28;92646;-82
2022/04/02 09:11:01;;;;;;;15.10;4.85;;;19.60;52.10;;;;;;4925724;28;92770;-81
2022/04/02 09:13:44;;;;;;;19.73;5.47;;;19.60;52.00;;;;;;4926371;28;92494;-81
2022/04/02 09:16:26;;;;;;;18.27;5.13;;;19.70;52.60;;;;;;4925948;28;92902;-82
2022/04/02 09:19:30;;;;;;;15.20;4.25;;;19.70;52.70;;;;;;4927368;28;93093;-82
2022/04/02 09:22:29;;;;;;;25.08;5.28;;;19.70;53.20;;;;;;4925493;28;92833;-82
2022/04/02 09:25:10;;;;;;;14.85;4.28;;;19.70;53.30;;;;;;4926691;28;92403;-83
2022/04/02 09:28:08;;;;;;;17.77;5.13;;;19.70;53.40;;;;;;4932535;28;92303;-82
2022/04/02 09:31:01;;;;;;;15.60;4.95;;;19.70;53.50;;;;;;4923852;28;96976;-82
2022/04/02 09:33:42;;;;;;;18.33;4.63;;;19.70;53.40;;;;;;4927872;28;93508;-82
2022/04/02 09:36:59;;;;;;;18.02;5.25;;;19.70;54.00;;;;;;4941081;28;93062;-82
2022/04/02 09:39:58;;;;;;;14.98;4.82;;;19.70;54.50;;;;;;4899570;28;94873;-82
2022/04/02 09:42:37;;;;;;;;;;;19.70;54.70;;;;;;4941000;28;94277;-82
2022/04/02 09:45:14;;;;;;;13.88;3.70;;;19.70;54.60;;;;;;4927816;28;92386;-83
2022/04/02 09:47:59;;;;;;;18.92;4.60;;;19.80;53.80;;;;;;4927673;28;92512;-82
2022/04/02 09:50:26;;;;;;;14.10;3.28;;;19.70;53.40;;;;;;4927897;28;92253;-83
2022/04/02 09:53:23;;;;;;;12.63;3.15;;;19.70;51.90;;;;;;4927369;28;93015;-83
2022/04/02 09:56:23;;;;;;;17.58;4.28;;;19.70;53.50;;;;;;4925919;28;92936;-82
2022/04/02 09:59:04;;;;;;;19.35;4.38;;;19.70;53.60;;;;;;4905519;28;92994;-83
2022/04/02 10:01:48;;;;;;;13.02;4.53;;;19.80;53.70;;;;;;4930795;28;92274;-81
2022/04/02 10:04:52;;;;;;;19.75;4.70;;;19.80;55.70;;;;;;4926718;28;93019;-83
2022/04/02 10:08:02;;;;;;;12.82;4.30;;;19.80;56.30;;;;;;4926795;28;92495;-82
2022/04/02 10:10:29;;;;;;;16.27;4.53;;;19.90;57.30;;;;;;4928599;28;92747;-82
2022/04/02 10:12:56;;;;;;;17.92;4.25;;;19.90;57.90;;;;;;4926858;28;92525;-82
2022/04/02 10:15:23;;;;;;;16.30;5.15;;;19.90;57.80;;;;;;4927722;28;93325;-82
2022/04/02 10:17:51;;;;;;;15.43;4.00;;;19.90;58.50;;;;;;4926196;28;91612;-81
2022/04/02 10:20:28;;;;;;;16.08;5.07;;;20.00;59.20;;;;;;4930152;28;92868;-82
2022/04/02 10:23:16;;;;;;;12.63;4.00;;;20.00;59.20;;;;;;4928647;28;92544;-81
2022/04/02 10:25:54;;;;;;;16.23;4.32;;;20.00;59.40;;;;;;4925281;28;93535;-82
2022/04/02 10:28:37;;;;;;;;;;;;;;;;;;;;;
2022/04/02 10:31:06;;;;;;;17.88;3.65;;;20.00;58.70;;;;;;4925921;28;92790;-80
2022/04/02 10:33:36;;;;;;;15.93;3.70;;;20.00;58.80;;;;;;4941771;28;93029;-82
2022/04/02 10:36:06;;;;;;;18.55;4.25;;;20.00;59.10;;;;;;4926007;28;92565;-81
2022/04/02 10:38:41;;;;;;;17.83;3.58;;;20.00;58.80;;;;;;4926489;28;92863;-80
2022/04/02 10:41:17;;;;;;;14.10;3.92;;;20.00;58.70;;;;;;4926930;28;92103;-81
2022/04/02 10:43:53;;;;;;;10.98;3.20;;;20.00;59.10;;;;;;4927997;28;91420;-82
2022/04/02 10:46:22;;;;;;;13.13;4.07;;;20.00;53.20;;;;;;4926859;28;93681;-82
2022/04/02 10:49:00;;;;;;;14.35;3.72;;;20.00;56.90;;;;;;4926512;28;92654;-81
2022/04/02 10:51:29;;;;;;;17.92;3.58;;;20.00;58.30;;;;;;4926555;28;94134;-82
2022/04/02 10:54:07;;;;;;;14.93;3.70;;;20.00;58.90;;;;;;4926629;28;93311;-81
2022/04/02 10:56:46;;;;;;;16.02;3.75;;;19.90;59.20;;;;;;4926237;28;92972;-81
2022/04/02 10:59:14;;;;;;;24.80;4.03;;;20.00;59.40;;;;;;4941409;28;93302;-82
2022/04/02 11:01:53;;;;;;;11.85;3.90;;;20.00;59.40;;;;;;4927378;28;92619;-82
2022/04/02 11:04:32;;;;;;;13.50;3.50;;;20.00;59.50;;;;;;4927489;28;93136;-80
2022/04/02 11:06:58;;;;;;;19.80;4.03;;;19.90;59.60;;;;;;4925772;28;94248;-81
2022/04/02 11:09:36;;;;;;;19.02;4.47;;;19.90;60.50;;;;;;4927937;28;94442;-82
2022/04/02 11:12:05;;;;;;;12.93;3.60;;;19.90;60.80;;;;;;4925536;28;93072;-81
2022/04/02 11:15:08;;;;;;;14.18;3.30;;;20.00;60.70;;;;;;4927369;28;92415;-81
2022/04/02 11:17:36;;;;;;;15.57;3.30;;;20.00;60.70;;;;;;4900407;28;96755;-82
2022/04/02 11:20:15;;;;;;;22.90;3.97;;;20.00;60.50;;;;;;4924865;28;93244;-83
2022/04/02 11:22:59;;;;;;;13.95;3.67;;;20.00;61.00;;;;;;4925025;28;92788;-81
2022/04/02 11:25:44;;;;;;;13.45;3.85;;;20.00;61.00;;;;;;4925852;28;92121;-82
2022/04/02 11:28:15;;;;;;;11.48;3.03;;;20.10;60.20;;;;;;4926265;28;93074;-82
2022/04/02 11:30:46;;;;;;;15.45;3.58;;;20.10;59.30;;;;;;4924061;28;92447;-82
2022/04/02 11:33:22;;;;;;;23.23;4.70;;;20.10;58.90;;;;;;4925448;28;92645;-81
2022/04/02 11:36:15;;;;;;;12.63;3.20;;;20.10;58.80;;;;;;4939998;28;91787;-80
2022/04/02 11:39:01;;;;;;;12.82;3.80;;;20.10;59.20;;;;;;4926306;28;93091;-82
2022/04/02 11:41:33;;;;;;;15.68;3.70;;;20.10;59.60;;;;;;4925029;28;92333;-81
2022/04/02 11:44:17;;;;;;;8.82;2.72;;;20.20;59.30;;;;;;4926475;28;93597;-82
2022/04/02 11:47:01;;;;;;;14.65;3.33;;;20.10;59.10;;;;;;4925574;28;93022;-82
2022/04/02 11:49:39;;;;;;;18.80;4.60;;;20.20;59.10;;;;;;4926898;28;92957;-80
2022/04/02 11:52:13;;;;;;;14.87;3.67;;;20.20;58.50;;;;;;4926489;28;92956;-81
2022/04/02 11:54:59;;;;;;;14.43;3.75;;;20.20;58.30;;;;;;4921851;28;92990;-82
2022/04/02 11:57:24;;;;;;;8.00;3.03;;;20.20;58.70;;;;;;4920631;28;92003;-82
2022/04/02 11:59:51;;;;;;;12.27;2.85;;;20.20;58.20;;;;;;4922722;28;92847;-81
2022/04/02 12:02:35;;;;;;;15.60;3.58;;;20.20;58.60;;;;;;4925351;28;92421;-82
2022/04/02 12:05:02;;;;;;;15.60;2.92;;;20.20;58.20;;;;;;4926198;28;92775;-82
2022/04/02 12:07:48;;;;;;;14.32;3.13;;;20.30;58.10;;;;;;4927403;28;93148;-82
2022/04/02 12:10:28;;;;;;;10.98;2.88;;;20.20;58.00;;;;;;4923321;28;93576;-82
2022/04/02 12:13:10;;;;;;;;;;;20.20;57.60;;;;;;4925381;28;93512;-82
2022/04/02 12:15:36;;;;;;;11.57;3.22;;;20.20;57.90;;;;;;4926370;28;92407;-82
2022/04/02 12:18:08;;;;;;;15.13;3.65;;;20.20;58.00;;;;;;4923192;28;92603;-82
2022/04/02 12:20:37;;;;;;;12.65;3.25;;;20.20;58.20;;;;;;4937053;28;96154;-81
2022/04/02 12:23:14;;;;;;;13.73;3.47;;;20.20;58.00;;;;;;4929707;28;95580;-81
2022/04/02 12:25:45;;;;;;;8.35;3.38;;;20.30;58.10;;;;;;4925804;28;93139;-81
2022/04/02 12:28:16;;;;;;;10.90;3.38;;;20.30;58.20;;;;;;4926944;28;91983;-82
2022/04/02 12:30:53;;;;;;;11.05;2.88;;;20.30;58.20;;;;;;4924813;28;92795;-82
2022/04/02 12:33:25;;;;;;;11.85;2.83;;;20.20;58.40;;;;;;4925633;28;93953;-82
2022/04/02 12:36:00;;;;;;;16.25;2.90;;;20.30;58.80;;;;;;4924020;28;93961;-81
2022/04/02 12:38:31;;;;;;;13.45;3.45;;;20.30;58.60;;;;;;4924210;28;92729;-81
2022/04/02 12:41:02;;;;;;;7.18;2.60;;;20.30;58.10;;;;;;4924848;28;92025;-80
2022/04/02 12:43:33;;;;;;;11.27;3.30;;;20.30;58.30;;;;;;4926276;28;92340;-81
2022/04/02 12:46:00;;;;;;;17.55;3.13;;;20.30;58.10;;;;;;4926108;28;92712;-81
2022/04/02 12:48:42;;;;;;;8.57;2.92;;;20.30;57.80;;;;;;4925734;28;92319;-81
2022/04/02 12:51:16;;;;;;;16.48;3.15;;;20.30;57.90;;;;;;4925106;28;94246;-82
2022/04/02 12:53:52;;;;;;;10.50;3.42;;;20.40;58.20;;;;;;4925296;28;92526;-82
2022/04/02 12:56:35;;;;;;;19.98;3.55;;;20.30;58.20;;;;;;4925160;28;92513;-83
2022/04/02 12:59:01;;;;;;;10.20;2.88;;;20.40;59.00;;;;;;4924968;28;93518;-82
2022/04/02 13:01:33;;;;;;;13.32;2.95;;;20.40;59.00;;;;;;4925482;28;93753;-83
2022/04/02 13:04:09;;;;;;;8.68;2.83;;;20.50;58.70;;;;;;4941295;28;96163;-82
2022/04/02 13:06:45;;;;;;;9.50;2.28;;;20.50;58.70;;;;;;4923349;28;94085;-82
2022/04/02 13:09:18;;;;;;;12.82;2.60;;;20.50;58.50;;;;;;4924550;28;93034;-83
2022/04/02 13:11:52;;;;;;;18.73;3.10;;;20.50;58.80;;;;;;4922654;28;93197;-81